Time;durP1;ratioP1;P1;durP2;ratioP2;P2;SDS_P1;SDS_P2;PMS_P1;PMS_P2;Temp;Humidity;BMP_temperature;BMP_pressure;BME280_temperature;BME280_humidity;BME280_pressure;Samples;Min_cycle;Max_cycle;Signal;HPM_P1;HPM_P2
2021/06/22 00:01:35;;;;;;;7.47;3.85;;;;;;;18.20;100.00;95768.56;5038464;28;21055;-74
2021/06/22 00:04:01;;;;;;;6.07;3.13;;;;;;;18.26;100.00;95756.94;5039039;28;21279;-74
2021/06/22 00:06:28;;;;;;;4.05;3.25;;;;;;;18.16;100.00;95758.56;5037899;28;20706;-75
2021/06/22 00:08:54;;;;;;;7.47;3.00;;;;;;;18.12;100.00;95754.75;5038087;28;21003;-75
2021/06/22 00:11:21;;;;;;;5.63;3.38;;;;;;;18.14;100.00;95758.78;5038939;28;20232;-75
2021/06/22 00:13:49;;;;;;;8.40;3.17;;;;;;;18.09;100.00;95761.34;5038246;28;20573;-75
2021/06/22 00:16:16;;;;;;;4.75;3.10;;;;;;;18.08;100.00;95761.59;5037252;28;20237;-75
2021/06/22 00:18:42;;;;;;;7.80;3.33;;;;;;;18.07;100.00;95763.44;5038866;28;20205;-75
2021/06/22 00:21:09;;;;;;;6.32;3.10;;;;;;;18.05;100.00;95754.88;5037833;28;20201;-74
2021/06/22 00:23:35;;;;;;;5.32;2.75;;;;;;;18.05;100.00;95746.88;5038091;28;20205;-74
2021/06/22 00:26:02;;;;;;;7.63;3.17;;;;;;;18.05;100.00;95746.03;5034625;28;20225;-75
2021/06/22 00:28:28;;;;;;;4.50;2.88;;;;;;;18.03;100.00;95753.47;5038629;28;20205;-74
2021/06/22 00:30:56;;;;;;;4.28;2.75;;;;;;;18.07;100.00;95751.97;5037797;28;20202;-75
2021/06/22 00:33:22;;;;;;;4.82;3.05;;;;;;;17.97;100.00;95754.41;5037835;28;20891;-75
2021/06/22 00:35:49;;;;;;;6.35;2.90;;;;;;;17.91;100.00;95764.16;5037323;28;20614;-75
2021/06/22 00:38:15;;;;;;;25.40;3.60;;;;;;;17.95;100.00;95770.63;5037598;28;20209;-75
2021/06/22 00:40:42;;;;;;;5.00;2.67;;;;;;;17.98;100.00;95769.38;5038206;28;20879;-75
2021/06/22 00:43:08;;;;;;;5.30;2.53;;;;;;;17.93;100.00;95766.59;5038026;28;20216;-74
2021/06/22 00:45:36;;;;;;;7.07;3.10;;;;;;;17.98;100.00;95774.69;5037001;28;20311;-75
2021/06/22 00:48:05;;;;;;;5.90;2.58;;;;;;;17.97;100.00;95765.06;5038030;28;20209;-74
2021/06/22 00:50:32;;;;;;;4.40;2.58;;;;;;;17.85;100.00;95765.06;5037522;28;20201;-74
2021/06/22 00:52:58;;;;;;;4.78;2.80;;;;;;;17.88;100.00;95761.97;5037918;28;20205;-74
2021/06/22 00:55:32;;;;;;;5.65;2.60;;;;;;;17.84;100.00;95754.66;5036544;28;20613;-75
2021/06/22 00:58:00;;;;;;;6.38;2.90;;;;;;;17.75;100.00;95753.38;5037525;28;20220;-74
2021/06/22 01:00:26;;;;;;;6.13;2.85;;;;;;;17.86;100.00;95749.91;5037714;28;20232;-74
2021/06/22 01:02:54;;;;;;;7.20;3.25;;;;;;;17.81;100.00;95752.47;5037520;28;20205;-74
2021/06/22 01:05:22;;;;;;;9.80;3.60;;;;;;;17.83;100.00;95750.34;5036289;28;20266;-74
2021/06/22 01:07:51;;;;;;;4.47;3.03;;;;;;;17.88;100.00;95747.81;5037323;28;20201;-75
2021/06/22 01:10:18;;;;;;;5.60;3.03;;;;;;;17.93;100.00;95739.91;5037666;28;20213;-74
2021/06/22 01:12:45;;;;;;;12.10;4.30;;;;;;;17.86;100.00;95739.25;5037323;28;20208;-75
2021/06/22 01:15:14;;;;;;;7.72;4.65;;;;;;;17.86;100.00;95736.59;5036126;28;20228;-74
2021/06/22 01:17:40;;;;;;;12.73;4.90;;;;;;;17.83;100.00;95743.19;5036962;28;20202;-75
2021/06/22 01:20:08;;;;;;;9.07;4.60;;;;;;;17.82;100.00;95744.22;5037543;28;20587;-74
2021/06/22 01:22:36;;;;;;;8.50;4.10;;;;;;;17.82;100.00;95744.22;5035742;28;20208;-75
2021/06/22 01:25:04;;;;;;;8.80;5.28;;;;;;;17.72;100.00;95728.00;5032662;28;20248;-74
2021/06/22 01:27:31;;;;;;;7.05;4.25;;;;;;;17.76;100.00;95723.81;5036364;28;20212;-75
2021/06/22 01:29:59;;;;;;;9.80;4.28;;;;;;;17.86;100.00;95736.59;5036610;28;20220;-75
2021/06/22 01:32:26;;;;;;;8.77;3.90;;;;;;;17.85;100.00;95741.09;5037304;28;20209;-74
2021/06/22 01:34:53;;;;;;;5.70;3.58;;;;;;;17.77;100.00;95743.31;5036739;28;20228;-74
2021/06/22 01:37:19;;;;;;;5.93;3.30;;;;;;;17.86;100.00;95747.25;5035459;28;20220;-74
2021/06/22 01:39:47;;;;;;;8.27;3.60;;;;;;;17.93;100.00;95729.25;5037624;28;20202;-74
2021/06/22 01:42:14;;;;;;;8.30;3.22;;;;;;;17.91;100.00;95742.03;5037607;28;20216;-74
2021/06/22 01:44:40;;;;;;;5.75;3.08;;;;;;;17.86;100.00;95741.91;5036209;28;20826;-74
2021/06/22 01:47:07;;;;;;;9.23;3.50;;;;;;;17.83;100.00;95742.38;5035697;28;20224;-74
2021/06/22 01:49:34;;;;;;;7.93;3.38;;;;;;;17.82;100.00;95738.91;5036764;28;20726;-74
2021/06/22 01:52:00;;;;;;;6.32;3.35;;;;;;;17.70;100.00;95745.28;5036665;28;20209;-74
2021/06/22 01:54:27;;;;;;;8.50;3.45;;;;;;;17.71;100.00;95751.44;5036440;28;20232;-75
2021/06/22 01:56:55;;;;;;;7.13;3.10;;;;;;;17.78;100.00;95747.56;5036166;28;20205;-74
2021/06/22 01:59:21;;;;;;;5.70;3.10;;;;;;;17.73;100.00;95734.97;5036164;28;20300;-75
2021/06/22 02:01:48;;;;;;;10.18;3.25;;;;;;;17.69;100.00;95737.50;5036767;28;20205;-74
2021/06/22 02:04:16;;;;;;;7.72;2.95;;;;;;;17.54;100.00;95735.31;5036932;28;20331;-74
2021/06/22 02:06:43;;;;;;;7.00;3.17;;;;;;;17.61;100.00;95733.34;5035568;28;20282;-74
2021/06/22 02:09:10;;;;;;;7.18;3.03;;;;;;;17.51;100.00;95734.97;5036262;28;21054;-74
2021/06/22 02:11:37;;;;;;;6.80;3.30;;;;;;;17.48;100.00;95746.09;5036584;28;21143;-75
2021/06/22 02:14:05;;;;;;;4.93;3.42;;;;;;;17.63;100.00;95749.91;5036580;28;20201;-74
2021/06/22 02:16:32;;;;;;;6.57;4.10;;;;;;;17.58;100.00;95757.78;5035255;28;20340;-74
2021/06/22 02:18:59;;;;;;;10.25;4.80;;;;;;;17.46;100.00;95756.94;5036264;28;20225;-74
2021/06/22 02:21:26;;;;;;;11.70;4.88;;;;;;;17.41;100.00;95766.69;5036344;28;20236;-74
2021/06/22 02:23:52;;;;;;;7.53;4.70;;;;;;;17.38;100.00;95759.16;5035982;28;20205;-74
2021/06/22 02:26:19;;;;;;;9.73;4.82;;;;;;;17.48;100.00;95756.75;5032490;28;20236;-75
2021/06/22 02:28:45;;;;;;;8.15;4.55;;;;;;;17.28;100.00;95757.06;5036187;28;20201;-75
2021/06/22 02:31:13;;;;;;;10.65;4.80;;;;;;;17.33;100.00;95757.19;5036047;28;20204;-74
2021/06/22 02:33:40;;;;;;;9.27;4.40;;;;;;;17.24;100.00;95755.06;5036408;28;20213;-74
2021/06/22 02:36:07;;;;;;;6.35;4.22;;;;;;;17.23;100.00;95759.59;5035421;28;20699;-74
2021/06/22 02:38:34;;;;;;;8.82;3.60;;;;;;;17.23;100.00;95758.75;5039034;28;20207;-74
2021/06/22 02:41:00;;;;;;;12.50;3.92;;;;;;;17.30;100.00;95760.31;5040139;28;20687;-74
2021/06/22 02:43:27;;;;;;;10.93;3.47;;;;;;;17.20;100.00;95756.56;5040769;28;20201;-74
2021/06/22 02:45:54;;;;;;;5.53;3.05;;;;;;;17.05;100.00;95750.03;5039249;28;20224;-74
2021/06/22 02:48:22;;;;;;;8.18;3.25;;;;;;;17.03;100.00;95744.97;5039975;28;20675;-74
2021/06/22 02:50:48;;;;;;;19.30;5.15;;;;;;;16.96;100.00;95740.75;5040556;28;20585;-74
2021/06/22 02:53:15;;;;;;;10.95;3.47;;;;;;;16.81;100.00;95745.69;5037100;28;20205;-75
2021/06/22 02:55:42;;;;;;;10.77;3.67;;;;;;;16.76;100.00;95734.91;5038455;28;20712;-75
2021/06/22 02:58:09;;;;;;;7.43;3.67;;;;;;;16.75;100.00;95738.59;5039625;28;20755;-75
2021/06/22 03:00:36;;;;;;;9.45;3.85;;;;;;;16.82;100.00;95731.34;5039938;28;20205;-75
2021/06/22 03:03:03;;;;;;;5.93;3.72;;;;;;;17.06;100.00;95727.72;5039507;28;20887;-75
2021/06/22 03:05:31;;;;;;;9.00;3.80;;;;;;;17.04;100.00;95732.44;5039081;28;20225;-74
2021/06/22 03:07:58;;;;;;;8.77;3.70;;;;;;;17.17;100.00;95733.88;5039663;28;20205;-74
2021/06/22 03:10:25;;;;;;;11.90;3.60;;;;;;;17.13;100.00;95742.53;5039675;28;20205;-74
2021/06/22 03:12:52;;;;;;;6.57;4.35;;;;;;;17.05;100.00;95740.19;5039540;28;20216;-75
2021/06/22 03:15:20;;;;;;;7.88;3.75;;;;;;;16.99;100.00;95741.09;5038694;28;20906;-75
2021/06/22 03:17:46;;;;;;;9.10;3.50;;;;;;;17.06;100.00;95735.72;5039148;28;20217;-75
2021/06/22 03:20:13;;;;;;;7.18;3.88;;;;;;;17.08;100.00;95736.28;5039387;28;20215;-75
2021/06/22 03:22:42;;;;;;;9.27;3.70;;;;;;;17.04;100.00;95743.91;5039516;28;20205;-75
2021/06/22 03:25:10;;;;;;;7.50;4.00;;;;;;;17.09;100.00;95742.19;5035282;28;20217;-75
2021/06/22 03:27:37;;;;;;;6.07;3.38;;;;;;;17.22;100.00;95731.31;5038816;28;20209;-74
2021/06/22 03:30:05;;;;;;;14.95;4.00;;;;;;;17.30;100.00;95733.69;5039047;28;20980;-75
2021/06/22 03:32:32;;;;;;;9.32;4.15;;;;;;;17.23;100.00;95738.28;5039271;28;21249;-74
2021/06/22 03:34:59;;;;;;;10.60;3.72;;;;;;;17.26;100.00;95742.34;5039008;28;20237;-74
2021/06/22 03:37:25;;;;;;;9.10;4.10;;;;;;;17.40;100.00;95744.56;5038464;28;20213;-75
2021/06/22 03:39:53;;;;;;;9.38;4.15;;;;;;;17.26;100.00;95743.16;5038964;28;20714;-75
2021/06/22 03:42:19;;;;;;;10.00;4.50;;;;;;;17.27;100.00;95736.81;5038669;28;20216;-73
2021/06/22 03:44:46;;;;;;;18.63;7.07;;;;;;;17.16;100.00;95734.09;5038740;28;20225;-72
2021/06/22 03:47:13;;;;;;;20.23;5.43;;;;;;;17.18;100.00;95734.66;5038925;28;20209;-72
2021/06/22 03:49:39;;;;;;;14.38;6.15;;;;;;;17.21;100.00;95734.22;5038419;28;20290;-72
2021/06/22 03:52:06;;;;;;;15.77;6.25;;;;;;;17.20;100.00;95736.06;5038786;28;20215;-72
2021/06/22 03:54:33;;;;;;;11.75;6.28;;;;;;;17.20;100.00;95733.41;5039260;28;20209;-72
2021/06/22 03:57:01;;;;;;;12.27;6.53;;;;;;;17.18;100.00;95738.16;5037678;28;20236;-72
2021/06/22 03:59:27;;;;;;;12.68;6.60;;;;;;;17.19;100.00;95734.44;5038036;28;20216;-72
2021/06/22 04:01:53;;;;;;;17.92;7.75;;;;;;;17.26;100.00;95727.19;5039170;28;20201;-72
2021/06/22 04:04:20;;;;;;;11.65;6.38;;;;;;;17.29;100.00;95721.41;5039679;28;20201;-72
2021/06/22 04:06:46;;;;;;;16.20;6.45;;;;;;;17.33;100.00;95725.22;5037374;28;20221;-72
2021/06/22 04:09:13;;;;;;;11.73;5.80;;;;;;;17.34;100.00;95724.19;5038487;28;20671;-72
2021/06/22 04:11:39;;;;;;;14.27;5.88;;;;;;;17.47;100.00;95734.59;5038551;28;20934;-72
2021/06/22 04:14:07;;;;;;;13.30;6.07;;;;;;;17.45;100.00;95736.72;5038264;28;20201;-72
2021/06/22 04:16:34;;;;;;;9.75;5.82;;;;;;;17.45;100.00;95733.22;5037345;28;20229;-72
2021/06/22 04:19:00;;;;;;;12.48;5.90;;;;;;;17.48;100.00;95741.56;5038658;28;20212;-72
2021/06/22 04:21:27;;;;;;;12.57;5.80;;;;;;;17.51;100.00;95726.97;5038102;28;20212;-72
2021/06/22 04:23:53;;;;;;;12.20;6.13;;;;;;;17.60;100.00;95726.38;5038092;28;20205;-72
2021/06/22 04:26:20;;;;;;;10.07;5.20;;;;;;;17.73;100.00;95724.31;5033921;28;20221;-72
2021/06/22 04:28:46;;;;;;;16.35;5.75;;;;;;;17.83;100.00;95724.53;5038024;28;20216;-72
2021/06/22 04:31:14;;;;;;;11.82;5.65;;;;;;;17.89;100.00;95720.13;5038300;28;20227;-72
2021/06/22 04:33:41;;;;;;;9.95;5.20;;;;;;;17.91;100.00;95718.84;5038011;28;20197;-72
2021/06/22 04:36:08;;;;;;;7.63;4.38;;;;;;;17.84;100.00;95718.13;5037327;28;20706;-72
2021/06/22 04:38:34;;;;;;;12.52;4.93;;;;;;;17.90;100.00;95716.41;5037703;28;20205;-72
2021/06/22 04:41:01;;;;;;;10.10;4.68;;;;;;;18.03;100.00;95716.16;5037889;28;20216;-72
2021/06/22 04:43:27;;;;;;;9.00;5.20;;;;;;;17.98;100.00;95719.50;5038540;28;20205;-72
2021/06/22 04:45:54;;;;;;;8.40;5.10;;;;;;;17.96;100.00;95715.44;5037011;28;20224;-72
2021/06/22 04:48:22;;;;;;;9.98;4.43;;;;;;;17.91;100.00;95721.50;5035818;28;20201;-72
2021/06/22 04:50:48;;;;;;;9.52;5.75;;;;;;;18.01;100.00;95736.88;5038035;28;20250;-72
2021/06/22 04:53:15;;;;;;;9.60;5.65;;;;;;;18.19;100.00;95739.44;5037929;28;20604;-72
2021/06/22 04:55:41;;;;;;;11.52;6.40;;;;;;;18.28;100.00;95738.84;5036740;28;20233;-72
2021/06/22 04:58:08;;;;;;;10.50;6.00;;;;;;;18.38;100.00;95739.88;5038048;28;20299;-72
2021/06/22 05:00:34;;;;;;;9.05;5.68;;;;;;;18.59;100.00;95744.53;5036930;28;20205;-72
2021/06/22 05:03:01;;;;;;;9.57;5.70;;;;;;;18.85;100.00;95741.31;5036868;28;20216;-72
2021/06/22 05:05:29;;;;;;;8.57;6.38;;;;;;;19.06;100.00;95746.78;5037070;28;20253;-72
2021/06/22 05:07:56;;;;;;;11.95;6.90;;;;;;;19.13;100.00;95743.97;5037132;28;20205;-72
2021/06/22 05:10:22;;;;;;;11.07;6.20;;;;;;;19.25;100.00;95747.41;5037243;28;20205;-72
2021/06/22 05:12:49;;;;;;;9.80;5.25;;;;;;;19.44;100.00;95746.09;5037567;28;20227;-72
2021/06/22 05:15:15;;;;;;;7.20;4.50;;;;;;;19.61;100.00;95747.69;5036376;28;20232;-72
2021/06/22 05:17:42;;;;;;;8.80;6.05;;;;;;;19.65;100.00;95749.66;5036656;28;21133;-72
2021/06/22 05:20:09;;;;;;;12.27;6.25;;;;;;;19.80;100.00;95752.53;5037351;28;20561;-72
2021/06/22 05:22:37;;;;;;;13.80;6.50;;;;;;;19.70;100.00;95752.41;5036581;28;20233;-72
2021/06/22 05:25:05;;;;;;;7.38;5.60;;;;;;;19.61;100.00;95743.19;5034225;28;20221;-72
2021/06/22 05:27:32;;;;;;;13.75;7.20;;;;;;;19.45;100.00;95747.69;5036818;28;20212;-72
2021/06/22 05:29:58;;;;;;;12.50;8.20;;;;;;;19.01;100.00;95753.88;5036801;28;20209;-72
2021/06/22 05:32:25;;;;;;;12.70;8.15;;;;;;;18.79;100.00;95749.44;5036743;28;20255;-72
2021/06/22 05:34:51;;;;;;;13.77;9.90;;;;;;;18.52;100.00;95751.06;5037012;28;20225;-72
2021/06/22 05:37:19;;;;;;;18.27;10.73;;;;;;;18.46;100.00;95747.47;5035970;28;20221;-72
2021/06/22 05:39:48;;;;;;;14.63;9.30;;;;;;;18.42;100.00;95746.34;5036452;28;20213;-72
2021/06/22 05:42:14;;;;;;;13.65;9.63;;;;;;;18.49;100.00;95741.66;5036885;28;20213;-72
2021/06/22 05:44:41;;;;;;;12.82;8.98;;;;;;;18.66;100.00;95731.88;5036430;28;20693;-72
2021/06/22 05:47:07;;;;;;;12.93;9.70;;;;;;;18.80;100.00;95729.72;5036114;28;20212;-72
2021/06/22 05:49:34;;;;;;;11.48;8.32;;;;;;;18.71;100.00;95734.66;5036490;28;20197;-72
2021/06/22 05:52:02;;;;;;;16.13;8.90;;;;;;;18.67;100.00;95733.50;5036577;28;20209;-72
2021/06/22 05:54:28;;;;;;;12.80;9.13;;;;;;;18.61;100.00;95730.94;5036563;28;20663;-72
2021/06/22 05:56:56;;;;;;;15.98;8.25;;;;;;;18.64;100.00;95746.50;5036008;28;20228;-72
2021/06/22 05:59:22;;;;;;;12.98;8.60;;;;;;;18.70;100.00;95757.03;5036640;28;20205;-72
2021/06/22 06:01:49;;;;;;;14.68;8.15;;;;;;;18.77;100.00;95757.69;5036511;28;20209;-71
2021/06/22 06:04:15;;;;;;;14.50;7.50;;;;;;;18.81;100.00;95758.03;5036264;28;20205;-72
2021/06/22 06:06:42;;;;;;;12.95;8.68;;;;;;;18.83;100.00;95759.41;5036521;28;20228;-72
2021/06/22 06:09:08;;;;;;;11.05;8.15;;;;;;;18.92;100.00;95757.97;5036781;28;20237;-72
2021/06/22 06:11:35;;;;;;;11.60;9.15;;;;;;;18.90;100.00;95754.72;5035865;28;21020;-72
2021/06/22 06:14:03;;;;;;;13.48;9.43;;;;;;;19.01;100.00;95756.53;5036618;28;20243;-72
2021/06/22 06:16:30;;;;;;;12.40;9.40;;;;;;;18.94;100.00;95755.91;5035917;28;21012;-72
2021/06/22 06:18:56;;;;;;;16.33;9.75;;;;;;;18.90;100.00;95754.72;5036121;28;20290;-72
2021/06/22 06:21:24;;;;;;;14.75;9.98;;;;;;;18.87;100.00;95751.75;5036700;28;20212;-71
2021/06/22 06:23:50;;;;;;;13.43;9.75;;;;;;;18.88;100.00;95748.84;5036520;28;20245;-72
2021/06/22 06:26:19;;;;;;;12.55;7.85;;;;;;;19.04;100.00;95745.38;5032666;28;20249;-72
2021/06/22 06:28:48;;;;;;;12.80;10.27;;;;;;;19.05;100.00;95747.81;5035604;28;20694;-72
2021/06/22 06:31:16;;;;;;;16.73;9.82;;;;;;;18.91;100.00;95735.00;5036163;28;20267;-72
2021/06/22 06:33:42;;;;;;;16.38;9.75;;;;;;;18.95;100.00;95733.47;5035819;28;20773;-72
2021/06/22 06:36:09;;;;;;;17.15;10.32;;;;;;;18.79;100.00;95734.25;5035374;28;20255;-71
2021/06/22 06:38:35;;;;;;;13.20;9.82;;;;;;;18.89;100.00;95737.13;5035765;28;20208;-71
2021/06/22 06:41:03;;;;;;;14.40;10.10;;;;;;;19.02;100.00;95737.59;5036073;28;20205;-71
2021/06/22 06:43:29;;;;;;;15.13;9.13;;;;;;;19.35;100.00;95732.34;5035487;28;20679;-72
2021/06/22 06:45:56;;;;;;;14.40;7.80;;;;;;;19.82;100.00;95728.25;5032217;28;21464;-72
2021/06/22 06:48:25;;;;;;;11.30;6.93;;;;;;;20.19;100.00;95730.13;5034494;28;20197;-72
2021/06/22 06:50:52;;;;;;;13.50;6.78;;;;;;;20.31;100.00;95736.16;5034721;28;20209;-72
2021/06/22 06:53:18;;;;;;;9.75;6.05;;;;;;;20.43;100.00;95734.16;5034323;28;20201;-72
2021/06/22 06:55:46;;;;;;;9.32;6.20;;;;;;;20.52;100.00;95738.03;5033936;28;20225;-72
2021/06/22 06:58:13;;;;;;;9.35;5.45;;;;;;;20.39;100.00;95741.06;5034340;28;20240;-72
2021/06/22 07:00:40;;;;;;;9.70;4.72;;;;;;;20.32;100.00;95748.50;5033881;28;20205;-72
2021/06/22 07:03:07;;;;;;;8.68;4.72;;;;;;;20.50;100.00;95737.47;5035145;28;20205;-71
2021/06/22 07:05:36;;;;;;;10.52;4.90;;;;;;;20.53;100.00;95726.25;5035313;28;20221;-71
2021/06/22 07:08:04;;;;;;;11.52;5.30;;;;;;;20.54;100.00;95730.56;5035975;28;20205;-71
2021/06/22 07:10:32;;;;;;;10.55;5.05;;;;;;;21.03;100.00;95731.13;5036027;28;20216;-71
2021/06/22 07:13:00;;;;;;;7.07;4.40;;;;;;;21.33;100.00;95739.44;5035478;28;20212;-71
2021/06/22 07:15:27;;;;;;;7.95;3.80;;;;;;;21.46;100.00;95736.38;5034701;28;20237;-72
2021/06/22 07:17:53;;;;;;;7.25;3.60;;;;;;;21.47;100.00;95741.47;5036582;28;20218;-71
2021/06/22 07:20:20;;;;;;;13.30;3.40;;;;;;;21.37;100.00;95745.91;5035719;28;20205;-71
2021/06/22 07:22:48;;;;;;;5.90;3.22;;;;;;;21.43;100.00;95744.91;5035173;28;20201;-71
2021/06/22 07:25:16;;;;;;;6.22;3.13;;;;;;;21.68;100.00;95753.19;5035768;28;20224;-71
2021/06/22 07:27:43;;;;;;;3.78;2.85;;;;;;;21.89;100.00;95750.38;5039433;28;20232;-71
2021/06/22 07:30:10;;;;;;;7.70;2.70;;;;;;;22.02;100.00;95755.31;5039195;28;20208;-72
2021/06/22 07:32:37;;;;;;;4.72;2.78;;;;;;;21.85;100.00;95748.47;5039177;28;20296;-72
2021/06/22 07:35:04;;;;;;;4.00;2.35;;;;;;;21.72;100.00;95748.94;5038885;28;21078;-71
2021/06/22 07:37:31;;;;;;;4.85;2.40;;;;;;;21.73;100.00;95745.97;5038891;28;20233;-72
2021/06/22 07:39:59;;;;;;;4.03;2.30;;;;;;;21.78;100.00;95750.56;5038779;28;20247;-72
2021/06/22 07:42:25;;;;;;;3.78;2.42;;;;;;;21.76;100.00;95744.66;5039047;28;20201;-72
2021/06/22 07:44:52;;;;;;;4.72;2.28;;;;;;;21.72;100.00;95746.25;5038903;28;20286;-72
2021/06/22 07:47:18;;;;;;;2.92;2.20;;;;;;;21.79;100.00;95744.13;5038354;28;20201;-72
2021/06/22 07:49:45;;;;;;;3.80;1.92;;;;;;;21.61;96.55;95745.38;5039039;28;20209;-72
2021/06/22 07:52:11;;;;;;;4.72;2.13;;;;;;;21.37;100.00;95743.22;5037936;28;20205;-71
2021/06/22 07:54:38;;;;;;;4.03;2.33;;;;;;;21.30;100.00;95744.53;5037698;28;21033;-71
2021/06/22 07:57:06;;;;;;;9.63;3.00;;;;;;;21.29;100.00;95743.69;5038040;28;20707;-72
2021/06/22 07:59:32;;;;;;;4.47;3.22;;;;;;;21.42;100.00;95743.28;5038325;28;20209;-72
2021/06/22 08:01:59;;;;;;;7.25;3.28;;;;;;;21.76;100.00;95740.09;5038702;28;20589;-72
2021/06/22 08:04:25;;;;;;;5.32;2.53;;;;;;;21.99;100.00;95742.41;5038680;28;20205;-72
2021/06/22 08:06:53;;;;;;;5.95;2.42;;;;;;;21.98;100.00;95748.03;5037867;28;20197;-72
2021/06/22 08:09:19;;;;;;;2.50;1.85;;;;;;;22.25;96.88;95758.41;5038272;28;20215;-72
2021/06/22 08:11:46;;;;;;;3.75;2.00;;;;;;;22.35;98.58;95755.81;5038891;28;20231;-73
2021/06/22 08:14:14;;;;;;;5.18;2.40;;;;;;;22.61;99.05;95759.41;5038247;28;20216;-73
2021/06/22 08:16:40;;;;;;;3.45;2.20;;;;;;;22.71;95.54;95755.69;5037319;28;20259;-73
2021/06/22 08:19:07;;;;;;;5.40;2.40;;;;;;;22.83;94.99;95763.50;5038870;28;20985;-73
2021/06/22 08:21:33;;;;;;;5.68;2.17;;;;;;;22.54;92.03;95765.00;5037885;28;20212;-73
2021/06/22 08:24:00;;;;;;;5.90;2.03;;;;;;;22.68;90.86;95764.28;5036859;28;20201;-73
2021/06/22 08:26:26;;;;;;;4.78;2.40;;;;;;;22.91;93.20;95765.69;5035527;28;20233;-73
2021/06/22 08:28:53;;;;;;;4.43;2.03;;;;;;;22.97;96.32;95759.25;5037877;28;20205;-73
2021/06/22 08:31:21;;;;;;;5.00;2.33;;;;;;;22.83;92.30;95764.31;5036770;28;20205;-73
2021/06/22 08:33:47;;;;;;;2.35;2.08;;;;;;;22.83;90.54;95769.69;5037086;28;20232;-73
2021/06/22 08:36:14;;;;;;;3.63;2.33;;;;;;;22.51;91.23;95773.59;5035651;28;20240;-73
2021/06/22 08:38:42;;;;;;;4.75;2.17;;;;;;;22.79;91.68;95770.50;5037413;28;21094;-72
2021/06/22 08:41:09;;;;;;;3.65;1.83;;;;;;;22.76;90.08;95771.81;5037470;28;20212;-73
2021/06/22 08:43:36;;;;;;;6.45;2.30;;;;;;;22.79;90.84;95773.19;5037444;28;20702;-73
2021/06/22 08:46:06;;;;;;;7.55;2.63;;;;;;;22.89;100.00;95778.59;5037154;28;20229;-73
2021/06/22 08:48:34;;;;;;;4.10;1.70;;;;;;;23.14;90.23;95778.69;5036695;28;20679;-73
2021/06/22 08:51:01;;;;;;;7.47;2.40;;;;;;;23.14;95.23;95776.00;5036861;28;20213;-73
2021/06/22 08:53:28;;;;;;;4.50;2.38;;;;;;;23.12;90.87;95783.53;5036828;28;20915;-72
2021/06/22 08:55:55;;;;;;;6.40;1.90;;;;;;;23.21;92.45;95779.25;5036462;28;20217;-75
2021/06/22 08:58:21;;;;;;;4.90;2.15;;;;;;;23.02;92.87;95780.81;5036744;28;20235;-74
2021/06/22 09:00:50;;;;;;;3.80;2.10;;;;;;;22.48;94.17;95779.50;5036825;28;20201;-75
2021/06/22 09:03:22;;;;;;;5.63;1.90;;;;;;;22.46;89.65;95781.63;5036699;28;20468;-75
2021/06/22 09:05:53;;;;;;;3.75;1.85;;;;;;;22.60;93.47;95780.06;5035773;28;20278;-75
2021/06/22 09:08:22;;;;;;;5.95;2.22;;;;;;;22.73;93.78;95779.59;5037019;28;20197;-74
2021/06/22 09:10:52;;;;;;;4.53;2.10;;;;;;;23.03;93.89;95787.81;5036471;28;20522;-75
2021/06/22 09:13:21;;;;;;;6.97;2.53;;;;;;;23.06;96.68;95782.69;5036740;28;20205;-75
2021/06/22 09:15:49;;;;;;;6.70;2.15;;;;;;;23.28;96.36;95779.78;5035802;28;20237;-74
2021/06/22 09:18:24;;;;;;;3.13;1.70;;;;;;;23.21;89.28;95782.72;5036341;28;20229;-75
2021/06/22 09:20:54;;;;;;;9.65;3.17;;;;;;;23.31;88.11;95772.78;5036890;28;20524;-75
2021/06/22 09:23:22;;;;;;;5.20;2.13;;;;;;;23.62;90.11;95769.06;5036886;28;20205;-76
2021/06/22 09:25:51;;;;;;;2.75;1.75;;;;;;;23.40;86.19;95786.53;5032884;28;20236;-75
2021/06/22 09:28:23;;;;;;;4.47;1.75;;;;;;;23.51;81.48;95774.69;5036938;28;20283;-75
2021/06/22 09:30:53;;;;;;;5.50;2.08;;;;;;;23.40;88.91;95786.53;5037380;28;20209;-75
2021/06/22 09:33:33;;;;;;;6.65;1.98;;;;;;;23.57;81.73;95779.81;5037150;28;20201;-74
2021/06/22 09:36:07;;;;;;;3.90;1.80;;;;;;;23.53;84.57;95773.34;5035659;28;20228;-75
2021/06/22 09:38:36;;;;;;;6.68;2.00;;;;;;;23.72;86.87;95785.25;5036522;28;20225;-74
2021/06/22 09:41:08;;;;;;;2.38;1.70;;;;;;;23.79;79.64;95780.41;5037161;28;20663;-75
2021/06/22 09:43:40;;;;;;;4.13;1.85;;;;;;;23.76;85.34;95786.31;5036657;28;21166;-74
2021/06/22 09:46:07;;;;;;;3.95;1.70;;;;;;;23.96;80.82;95781.72;5035413;28;20221;-75
2021/06/22 09:48:46;;;;;;;3.03;1.42;;;;;;;23.66;82.66;95785.47;5037021;28;20212;-75
2021/06/22 09:51:14;;;;;;;2.30;1.52;;;;;;;23.73;88.73;95789.56;5036570;28;20211;-75
2021/06/22 09:53:41;;;;;;;2.83;1.50;;;;;;;23.82;83.39;95787.16;5035591;28;20220;-75
2021/06/22 09:56:19;;;;;;;4.70;1.45;;;;;;;23.83;81.63;95786.03;5035958;28;20232;-76
2021/06/22 09:58:46;;;;;;;2.97;1.40;;;;;;;24.18;79.14;95790.31;5036432;28;20232;-74
2021/06/22 10:01:33;;;;;;;3.67;1.23;;;;;;;23.72;74.65;95785.25;5035857;28;20213;-74
2021/06/22 10:04:20;;;;;;;3.75;1.38;;;;;;;23.11;78.06;95792.66;5036332;28;20211;-74
2021/06/22 10:06:54;;;;;;;1.83;1.10;;;;;;;23.42;76.30;95790.56;5034896;28;20236;-75
2021/06/22 10:09:25;;;;;;;4.72;1.10;;;;;;;23.68;79.67;95789.53;5035031;28;20209;-76
2021/06/22 10:12:01;;;;;;;1.20;1.00;;;;;;;23.70;73.97;95781.19;5036049;28;20307;-75
2021/06/22 10:14:30;;;;;;;2.25;1.00;;;;;;;24.11;72.64;95784.41;5035085;28;20223;-76
2021/06/22 10:16:58;;;;;;;3.42;1.10;;;;;;;24.17;72.92;95782.50;5034247;28;20202;-75
2021/06/22 10:19:26;;;;;;;2.60;1.10;;;;;;;24.44;75.91;95783.03;5035734;28;20683;-75
2021/06/22 10:21:55;;;;;;;4.80;1.13;;;;;;;24.72;74.00;95786.72;5036158;28;20227;-75
2021/06/22 10:24:22;;;;;;;7.35;1.10;;;;;;;24.84;75.45;95779.13;5032495;28;20275;-74
2021/06/22 10:26:49;;;;;;;3.53;1.00;;;;;;;25.24;73.33;95784.34;5035903;28;20232;-75
2021/06/22 10:29:18;;;;;;;4.28;1.05;;;;;;;25.11;80.09;95776.84;5036675;28;20212;-75
2021/06/22 10:31:46;;;;;;;3.47;1.17;;;;;;;25.26;77.00;95784.88;5036649;28;20584;-76
2021/06/22 10:34:12;;;;;;;4.18;1.33;;;;;;;25.33;74.29;95782.66;5036590;28;20212;-76
2021/06/22 10:36:45;;;;;;;3.30;0.98;;;;;;;25.36;70.11;95787.53;5035254;28;20216;-75
2021/06/22 10:39:18;;;;;;;6.75;1.20;;;;;;;25.17;69.38;95783.84;5035823;28;20225;-75
2021/06/22 10:41:47;;;;;;;2.38;1.10;;;;;;;25.33;74.47;95785.38;5036513;28;20213;-75
2021/06/22 10:44:37;;;;;;;2.25;1.20;;;;;;;25.47;68.46;95791.75;5035917;28;20706;-75
2021/06/22 10:47:37;;;;;;;3.20;1.00;;;;;;;25.63;66.86;95798.69;5034853;28;20224;-76
2021/06/22 10:50:08;;;;;;;2.05;1.20;;;;;;;25.75;64.58;95796.44;5029853;28;20217;-76
2021/06/22 10:52:49;;;;;;;4.30;1.60;;;;;;;25.79;64.99;95797.50;5036191;28;20201;-76
2021/06/22 10:55:20;;;;;;;3.92;1.42;;;;;;;26.03;70.10;95800.00;5034738;28;20265;-75
2021/06/22 10:57:55;;;;;;;2.10;1.25;;;;;;;26.25;67.99;95803.03;5036300;28;20362;-75
2021/06/22 11:00:21;;;;;;;3.88;1.30;;;;;;;25.99;68.30;95808.94;5039744;28;20212;-75
2021/06/22 11:03:01;;;;;;;3.22;1.20;;;;;;;25.64;64.00;95811.88;5039311;28;20204;-76
2021/06/22 11:05:28;;;;;;;56.20;8.95;;;;;;;25.01;66.41;95817.31;5038870;28;20228;-76
2021/06/22 11:08:28;;;;;;;4.03;1.60;;;;;;;25.17;67.51;95816.22;5039473;28;20675;-76
2021/06/22 11:11:18;;;;;;;10.07;1.58;;;;;;;25.87;68.15;95803.09;5039443;28;20201;-76
2021/06/22 11:13:46;;;;;;;5.28;2.25;;;;;;;26.33;65.10;95809.72;5039695;28;20201;-76
2021/06/22 11:16:27;;;;;;;2.72;1.50;;;;;;;26.79;63.60;95815.19;5038211;28;20234;-76
2021/06/22 11:19:08;;;;;;;1.92;1.10;;;;;;;27.02;61.74;95814.41;5038635;28;20228;-76
2021/06/22 11:21:37;;;;;;;2.90;1.30;;;;;;;27.08;65.60;95807.06;5039596;28;20208;-76
2021/06/22 11:24:06;;;;;;;1.65;1.00;;;;;;;26.73;63.53;95807.44;5037111;28;20205;-76
2021/06/22 11:27:13;;;;;;;3.97;1.40;;;;;;;26.67;66.06;95812.09;5038078;28;20260;-76
2021/06/22 11:29:53;;;;;;;2.35;1.23;;;;;;;26.15;63.10;95805.03;5023729;28;20262;-76